Forside
METAR-TAF:

METAR-TAF

Lufthavne :

Auburn, Indiana, USA

Breddekreds: 41-18-26N, længdekreds: 085-03-52W, højde: 268 m

Aktuelle vejr

Denne rapport blev lavet for 25 minutter siden, kl. 13:55 UTC
Vind 6 kt fra østnordøst
Temperatur 3°C
Fugtighed 93%
Tryk 1016 hPa
Sigt: 16.1 km
Overskyet i en højde af 1300 ft

METAR: KGWB 311355Z AUTO 06006KT 10SM OVC013 03/02 A3001 RMK AO2

Tid: 10:20 (14:20 UTC)


TAF: fraværende

Vejrobservationer og prognoser fra mere end 4000 lufthavne (METAR og TAF).

De gule og røde prikker repræsenterer de meteorologiske stationer.

Flyt musen over at se navnet på stationen.

Så klik over at se vejr observationer og prognoser.

At skifte det kort: Klik på de grønne knapper med et sort kors for at zoome ind; på den grønne knap med en bindestreg for at zoome ud; eller på de grønne pile for tilstødende kort.


METAR-TAF: